Terminal Aerodrome Forecast
Issued by NWS Quad Cities IA IL

Home | Current Version | Previous Version | Text Only | Print | Product List | Glossary On
Versions: 1 2 3 4 5 6 7 8 9 10 11 12 13 14 15 16 17 18 19 20 21 22 23 24 25 26 27 28 29
000
FTUS43 KDVN 201733
TAFMLI
TAF
KMLI 201733Z 2018/2118 22011G21KT P6SM SCT090
      TEMPO 2020/2024 4SM -TSRA BR BKN060CB
     FM210000 VRB03KT P6SM SKC
     FM211200 12005KT P6SM SCT050=

USA.gov is the U.S. government's official web portal to all federal, state and local government web resources and services.